Zeigler, Illinois
Current Conditions -  °F | °C
As of 6:10 AM on Saturday 20 Dec 2014 (Local Time) from KMWA Reporting Station
Overcast Overcast  
Wind Chill: 34°   Ceiling: 4600
Heat Index: 34°   Visibility: 7mi
Dew Point: 30°   Wind: 0mph
Humidity: 87%   Direction: NA
Pressure: 30.28"   Gusts: NA
Location:  37.9°N, 89.05°W
Report Text: KMWA 201210Z AUTO 00000KT 7SM BKN046 OVC060 01/M01 A3028 RMK AO2
Loading
Personal Weather Stations






























Interactive Weather Map New forecast layout! Learn more

10-Day Weather Forecast

Advertisements
Track Severe Weather on mobile